createdAt,value
2019-03-24T00:03:49.477Z,31.20
2019-03-24T00:06:18.387Z,31.00
2019-03-24T00:08:47.193Z,31.00
2019-03-24T00:11:15.985Z,31.10
2019-03-24T00:13:44.871Z,31.30
2019-03-24T00:16:13.790Z,31.10
2019-03-24T00:18:42.725Z,31.00
2019-03-24T00:21:11.519Z,30.90
2019-03-24T00:23:40.510Z,31.10
2019-03-24T00:26:09.407Z,31.00
2019-03-24T00:28:38.295Z,31.10
2019-03-24T00:31:07.154Z,31.00
2019-03-24T00:33:35.966Z,31.20
2019-03-24T00:36:04.999Z,31.20
2019-03-24T00:38:33.898Z,31.40
2019-03-24T00:41:02.817Z,31.50
2019-03-24T00:43:31.707Z,31.90
2019-03-24T00:46:00.564Z,31.70
2019-03-24T00:51:17.326Z,31.60
2019-03-24T00:53:46.204Z,31.90
2019-03-24T00:56:15.189Z,31.80
2019-03-24T00:58:46.000Z,32.20
2019-03-24T01:01:14.576Z,32.20
2019-03-24T01:03:43.646Z,32.40
2019-03-24T01:06:12.689Z,32.30
2019-03-24T01:08:41.574Z,32.50
2019-03-24T01:11:10.377Z,32.40
2019-03-24T01:13:39.263Z,32.30
2019-03-24T01:16:08.119Z,32.70
2019-03-24T01:18:37.037Z,32.50
2019-03-24T01:21:05.959Z,32.60
2019-03-24T01:23:34.824Z,32.60
2019-03-24T01:26:03.815Z,32.60
2019-03-24T01:28:32.666Z,32.40
2019-03-24T01:31:01.637Z,32.70
2019-03-24T01:33:30.589Z,32.50
2019-03-24T01:35:59.544Z,32.50
2019-03-24T01:38:28.402Z,32.40
2019-03-24T01:40:57.349Z,32.50
2019-03-24T01:43:26.200Z,32.30
2019-03-24T01:45:58.860Z,32.50
2019-03-24T01:50:54.200Z,32.40
2019-03-24T01:53:22.976Z,32.40
2019-03-24T01:55:51.857Z,32.60
2019-03-24T01:58:20.712Z,32.60
2019-03-24T02:00:49.590Z,32.60
2019-03-24T02:03:18.441Z,33.00
2019-03-24T02:05:47.312Z,33.00
2019-03-24T02:08:15.912Z,33.00
2019-03-24T02:10:45.008Z,32.90
2019-03-24T02:13:13.873Z,33.00
2019-03-24T02:18:13.094Z,33.00
2019-03-24T02:20:41.964Z,32.90
2019-03-24T02:23:10.746Z,32.90
2019-03-24T02:25:39.626Z,32.90
2019-03-24T02:28:08.497Z,32.90
2019-03-24T02:30:37.373Z,33.00
2019-03-24T02:33:06.249Z,33.10
2019-03-24T02:38:03.660Z,33.20
2019-03-24T02:40:32.546Z,33.20
2019-03-24T02:43:01.390Z,33.10
2019-03-24T02:45:30.277Z,33.10
2019-03-24T02:47:59.058Z,33.20
2019-03-24T02:50:27.935Z,33.10
2019-03-24T02:52:56.792Z,33.30
2019-03-24T02:55:25.669Z,33.30
2019-03-24T02:57:54.525Z,34.00
2019-03-24T03:00:24.514Z,34.70
2019-03-24T03:02:53.350Z,33.10
2019-03-24T03:05:22.348Z,33.60
2019-03-24T03:12:48.369Z,33.30
2019-03-24T03:15:17.364Z,33.50
2019-03-24T03:17:46.213Z,33.30
2019-03-24T03:20:15.559Z,33.10
2019-03-24T03:22:44.403Z,32.90
2019-03-24T03:25:13.970Z,32.90
2019-03-24T03:27:42.881Z,32.90
2019-03-24T03:30:12.173Z,33.00
2019-03-24T03:32:41.062Z,32.90
2019-03-24T03:35:10.557Z,32.80
2019-03-24T03:37:39.435Z,32.80
2019-03-24T03:40:09.532Z,32.90
2019-03-24T03:42:39.649Z,32.70
2019-03-24T03:45:10.239Z,32.70
2019-03-24T03:47:39.647Z,32.60
2019-03-24T03:50:09.258Z,32.70
2019-03-24T03:52:38.138Z,32.80
2019-03-24T03:55:07.218Z,32.70
2019-03-24T03:57:36.279Z,33.40
2019-03-24T04:00:08.356Z,33.20
2019-03-24T04:02:37.434Z,32.70
2019-03-24T04:05:07.229Z,32.70
2019-03-24T04:07:36.207Z,32.70
2019-03-24T04:10:06.416Z,32.90
2019-03-24T04:12:35.411Z,32.90
2019-03-24T04:15:08.081Z,32.80
2019-03-24T04:17:36.970Z,33.50
2019-03-24T04:20:06.593Z,32.70
2019-03-24T04:22:35.511Z,33.00
2019-03-24T04:25:06.008Z,32.80
2019-03-24T04:30:04.010Z,33.60
2019-03-24T04:32:32.902Z,33.70
2019-03-24T04:35:01.821Z,33.70
2019-03-24T04:37:33.038Z,33.60
2019-03-24T04:40:04.146Z,33.70
2019-03-24T04:42:32.933Z,33.50
2019-03-24T04:45:01.762Z,33.50
2019-03-24T04:47:30.608Z,33.30
2019-03-24T04:52:47.360Z,33.10
2019-03-24T04:55:16.317Z,33.00
2019-03-24T04:57:45.151Z,32.90
2019-03-24T05:00:16.245Z,32.90
2019-03-24T05:02:45.126Z,33.50
2019-03-24T05:05:14.104Z,34.10
2019-03-24T05:07:43.169Z,33.30
2019-03-24T05:10:26.118Z,33.20
2019-03-24T05:12:55.285Z,33.00
2019-03-24T05:15:24.606Z,32.90
2019-03-24T05:17:53.417Z,33.30
2019-03-24T05:22:50.873Z,32.80
2019-03-24T05:25:20.205Z,32.70
2019-03-24T05:27:49.083Z,32.80
2019-03-24T05:30:17.861Z,32.70
2019-03-24T05:32:46.737Z,32.90
2019-03-24T05:35:15.611Z,32.70
2019-03-24T05:40:13.164Z,33.30
2019-03-24T05:42:42.047Z,33.10
2019-03-24T05:45:11.077Z,32.90
2019-03-24T05:47:39.971Z,32.80
2019-03-24T05:52:56.747Z,32.50
2019-03-24T05:57:54.135Z,32.40
2019-03-24T06:00:25.998Z,33.10
2019-03-24T06:02:54.776Z,32.30
2019-03-24T06:05:23.660Z,32.90
2019-03-24T06:07:52.554Z,32.70
2019-03-24T06:10:21.377Z,32.40
2019-03-24T06:12:50.307Z,32.30
2019-03-24T06:15:19.181Z,32.10
2019-03-24T06:17:48.268Z,31.90
2019-03-24T06:20:17.254Z,32.30
2019-03-24T06:22:46.112Z,31.90
2019-03-24T06:25:14.987Z,32.00
2019-03-24T06:27:43.763Z,31.60
2019-03-24T06:30:13.006Z,31.00
2019-03-24T06:32:41.856Z,31.10
2019-03-24T06:35:10.818Z,30.70
2019-03-24T06:37:39.678Z,29.40
2019-03-24T06:40:08.946Z,29.50
2019-03-24T06:45:07.424Z,29.60
2019-03-24T06:47:36.349Z,29.30
2019-03-24T06:50:09.456Z,28.00
2019-03-24T06:57:35.414Z,27.70
2019-03-24T07:00:09.006Z,27.40
2019-03-24T07:05:07.065Z,27.80
2019-03-24T07:07:35.940Z,27.60
2019-03-24T07:10:07.025Z,27.80
2019-03-24T07:12:35.961Z,27.00
2019-03-24T07:15:07.864Z,27.40
2019-03-24T07:17:37.675Z,26.70
2019-03-24T07:20:08.700Z,27.30
2019-03-24T07:22:37.702Z,26.20
2019-03-24T07:25:06.753Z,26.40
2019-03-24T07:27:35.621Z,25.60
2019-03-24T07:30:25.369Z,25.50
2019-03-24T07:32:54.239Z,26.00
2019-03-24T07:35:23.109Z,26.00
2019-03-24T07:37:51.974Z,26.20
2019-03-24T07:40:20.916Z,26.30
2019-03-24T07:42:49.769Z,26.30
2019-03-24T07:45:18.661Z,26.30
2019-03-24T07:47:49.093Z,26.30
2019-03-24T07:50:18.201Z,26.10
2019-03-24T07:52:46.991Z,25.50
2019-03-24T07:55:15.922Z,25.80
2019-03-24T07:57:45.386Z,25.10
2019-03-24T08:00:18.923Z,25.30
2019-03-24T08:02:53.587Z,25.00
2019-03-24T08:05:22.446Z,24.80
2019-03-24T08:07:51.344Z,24.90
2019-03-24T08:10:20.198Z,25.00
2019-03-24T08:12:49.106Z,24.80
2019-03-24T08:15:18.103Z,24.90
2019-03-24T08:17:46.922Z,24.30
2019-03-24T08:20:15.886Z,23.80
2019-03-24T08:22:44.856Z,23.80
2019-03-24T08:25:13.988Z,23.40
2019-03-24T08:27:42.904Z,23.30
2019-03-24T08:30:12.096Z,22.90
2019-03-24T08:32:41.065Z,22.90
2019-03-24T08:35:10.118Z,23.00
2019-03-24T08:37:38.957Z,23.60
2019-03-24T08:40:08.199Z,23.40
2019-03-24T08:42:37.193Z,23.10
2019-03-24T08:45:07.749Z,22.80
2019-03-24T08:47:36.650Z,23.50
2019-03-24T08:50:07.352Z,23.60
2019-03-24T08:52:36.168Z,22.90
2019-03-24T08:55:06.606Z,23.10
2019-03-24T08:57:35.498Z,23.10
2019-03-24T09:00:06.117Z,22.10
2019-03-24T09:02:34.994Z,22.00
2019-03-24T09:05:04.409Z,21.80
2019-03-24T09:10:01.375Z,20.50
2019-03-24T09:14:59.957Z,21.00
2019-03-24T09:17:28.519Z,19.30
2019-03-24T09:19:57.161Z,17.30
2019-03-24T09:22:25.771Z,16.70
2019-03-24T09:24:54.349Z,17.50
2019-03-24T09:27:22.973Z,16.40
2019-03-24T09:29:51.485Z,16.80
2019-03-24T09:32:20.110Z,15.70
2019-03-24T09:34:48.734Z,16.60
2019-03-24T09:39:45.857Z,14.10
2019-03-24T09:42:14.653Z,15.00
2019-03-24T09:44:43.232Z,15.10
2019-03-24T09:47:11.839Z,15.10
2019-03-24T09:49:41.997Z,14.50
2019-03-24T09:52:10.611Z,14.40
2019-03-24T09:57:07.529Z,13.70
2019-03-24T09:59:36.159Z,14.00
2019-03-24T10:02:04.851Z,13.50
2019-03-24T10:04:33.650Z,13.80
2019-03-24T10:07:02.317Z,13.10
2019-03-24T10:09:30.951Z,13.90
2019-03-24T10:11:59.459Z,13.70
2019-03-24T10:14:32.701Z,13.30
2019-03-24T10:17:01.217Z,13.40
2019-03-24T10:19:29.869Z,13.30
2019-03-24T10:21:58.553Z,13.90
2019-03-24T10:24:27.153Z,12.00
2019-03-24T10:26:55.687Z,12.40
2019-03-24T10:29:24.283Z,12.10
2019-03-24T10:31:52.789Z,12.10
2019-03-24T10:34:21.398Z,11.70
2019-03-24T10:36:49.993Z,12.00
2019-03-24T10:39:18.591Z,12.00
2019-03-24T10:41:47.186Z,10.40
2019-03-24T10:44:15.859Z,10.70
2019-03-24T10:49:12.688Z,9.50
2019-03-24T10:51:41.203Z,9.70
2019-03-24T10:54:09.822Z,9.80
2019-03-24T10:56:38.391Z,9.10
2019-03-24T10:59:07.079Z,9.90
2019-03-24T11:01:35.652Z,9.90
2019-03-24T11:04:11.652Z,9.80
2019-03-24T11:06:40.161Z,8.60
2019-03-24T11:09:08.918Z,8.40
2019-03-24T11:11:37.492Z,8.50
2019-03-24T11:14:06.096Z,8.90
2019-03-24T11:16:34.685Z,7.20
2019-03-24T11:19:03.411Z,6.40
2019-03-24T11:21:32.550Z,6.60
2019-03-24T11:24:01.220Z,7.30
2019-03-24T11:26:29.809Z,6.60
2019-03-24T11:28:58.401Z,5.80
2019-03-24T11:31:26.888Z,6.20
2019-03-24T11:33:56.065Z,6.90
2019-03-24T11:36:24.678Z,6.40
2019-03-24T11:38:53.286Z,6.40
2019-03-24T11:41:21.858Z,6.40
2019-03-24T11:43:50.366Z,7.10
2019-03-24T11:46:18.947Z,7.00
2019-03-24T11:48:47.553Z,6.70
2019-03-24T11:51:16.154Z,6.20
2019-03-24T11:53:44.760Z,5.40
2019-03-24T11:56:13.362Z,4.20
2019-03-24T11:58:42.057Z,3.40
2019-03-24T12:01:10.673Z,4.60
2019-03-24T12:03:39.384Z,5.80
2019-03-24T12:06:14.430Z,6.50
2019-03-24T12:08:39.271Z,7.10
2019-03-24T12:11:08.697Z,7.50
2019-03-24T12:13:37.225Z,6.90
2019-03-24T12:16:05.719Z,6.60
2019-03-24T12:18:34.313Z,7.90
2019-03-24T12:21:02.886Z,7.10
2019-03-24T12:23:31.457Z,6.60
2019-03-24T12:26:00.053Z,4.90
2019-03-24T12:28:28.626Z,4.80
2019-03-24T12:30:57.226Z,3.00
2019-03-24T12:33:25.787Z,3.30
2019-03-24T12:35:54.389Z,1.00
2019-03-24T12:38:22.945Z,1.00
2019-03-24T12:40:51.561Z,1.00
2019-03-24T12:43:20.152Z,1.00
2019-03-24T12:45:48.825Z,1.00
2019-03-24T12:48:17.458Z,1.00
2019-03-24T12:50:45.991Z,1.00
2019-03-24T12:53:14.553Z,1.00
2019-03-24T12:55:43.227Z,1.00
2019-03-24T12:58:11.870Z,1.00
2019-03-24T13:00:40.903Z,1.00
2019-03-24T13:03:09.609Z,1.00
2019-03-24T13:05:38.346Z,1.00
2019-03-24T13:08:11.785Z,1.00
2019-03-24T13:10:41.148Z,1.00
2019-03-24T13:13:10.654Z,1.00
2019-03-24T13:15:39.458Z,1.00
2019-03-24T13:18:08.054Z,1.00
2019-03-24T13:20:38.694Z,1.00
2019-03-24T13:23:07.081Z,1.00
2019-03-24T13:25:36.393Z,1.00
2019-03-24T13:28:05.246Z,1.00
2019-03-24T13:30:33.860Z,1.00
2019-03-24T13:33:02.702Z,1.00
2019-03-24T13:35:31.300Z,1.00
2019-03-24T13:37:59.892Z,1.00
2019-03-24T13:40:28.523Z,1.00
2019-03-24T13:42:57.082Z,1.00
2019-03-24T13:45:25.753Z,1.00
2019-03-24T13:47:54.918Z,1.00
2019-03-24T13:50:31.323Z,1.00
2019-03-24T13:52:54.902Z,1.00
2019-03-24T13:55:24.140Z,1.00
2019-03-24T13:57:53.275Z,1.00
2019-03-24T14:00:23.729Z,1.00
2019-03-24T14:02:52.788Z,1.00
2019-03-24T14:05:21.940Z,1.00
2019-03-24T14:07:51.082Z,1.00
2019-03-24T14:10:20.263Z,1.00
2019-03-24T14:15:18.267Z,1.00
2019-03-24T14:17:47.396Z,1.00
2019-03-24T14:20:16.829Z,1.00
2019-03-24T14:22:45.392Z,1.00
2019-03-24T14:25:13.989Z,1.00
2019-03-24T14:27:42.572Z,1.00
2019-03-24T14:30:11.749Z,1.00
2019-03-24T14:32:40.957Z,1.00
2019-03-24T14:35:09.594Z,1.00
2019-03-24T14:37:38.262Z,1.00
2019-03-24T14:40:07.767Z,1.00
2019-03-24T14:42:36.386Z,1.00
2019-03-24T14:45:07.392Z,1.00
2019-03-24T14:47:36.008Z,1.00
2019-03-24T14:50:06.015Z,1.00
2019-03-24T14:52:34.617Z,1.00
2019-03-24T14:55:03.350Z,1.00
2019-03-24T14:57:32.017Z,1.00
2019-03-24T15:00:00.514Z,1.00
2019-03-24T15:02:29.677Z,1.00
2019-03-24T15:04:58.753Z,1.00
2019-03-24T15:07:27.945Z,1.00
2019-03-24T15:09:57.117Z,1.00
2019-03-24T15:12:25.723Z,1.00
2019-03-24T15:14:54.865Z,1.00
2019-03-24T15:17:24.069Z,1.00
2019-03-24T15:19:53.222Z,1.00
2019-03-24T15:22:22.430Z,1.00
2019-03-24T15:24:51.564Z,1.00
2019-03-24T15:27:20.750Z,1.00
2019-03-24T15:29:49.929Z,1.00
2019-03-24T15:32:19.095Z,1.00
2019-03-24T15:34:48.931Z,1.00
2019-03-24T15:37:18.308Z,1.00
2019-03-24T15:39:47.521Z,1.00
2019-03-24T15:42:16.696Z,1.00
2019-03-24T15:44:45.925Z,1.00
2019-03-24T15:47:15.091Z,1.00
2019-03-24T15:49:43.662Z,1.00
2019-03-24T15:52:12.329Z,1.00
2019-03-24T15:54:40.916Z,1.00
2019-03-24T15:57:09.639Z,1.00
2019-03-24T15:59:38.216Z,1.00
2019-03-24T16:02:06.894Z,1.00
2019-03-24T16:26:50.128Z,2.10
2019-03-24T16:41:40.075Z,4.80
2019-03-24T16:46:37.010Z,4.90
2019-03-24T16:49:05.670Z,4.60
2019-03-24T16:51:38.393Z,4.10
2019-03-24T16:54:04.572Z,3.30
2019-03-24T16:56:33.138Z,3.30
2019-03-24T16:59:01.830Z,5.20
2019-03-24T17:01:30.551Z,5.30
2019-03-24T17:03:59.552Z,6.70
2019-03-24T17:06:28.127Z,7.40
2019-03-24T17:08:56.808Z,7.60
2019-03-24T17:11:26.352Z,8.10
2019-03-24T17:13:55.017Z,8.30
2019-03-24T17:21:20.782Z,8.80
2019-03-24T17:23:49.411Z,8.00
2019-03-24T17:26:18.267Z,8.60
2019-03-24T17:28:47.193Z,9.20
2019-03-24T17:31:16.115Z,11.00
2019-03-24T17:33:45.008Z,10.70
2019-03-24T17:36:15.472Z,10.90
2019-03-24T17:38:44.529Z,9.40
2019-03-24T17:41:13.318Z,9.70
2019-03-24T17:43:42.199Z,10.10
2019-03-24T17:46:11.066Z,10.80
2019-03-24T17:48:40.101Z,11.00
2019-03-24T17:51:09.170Z,12.10
2019-03-24T17:53:38.059Z,12.60
2019-03-24T17:56:06.890Z,12.40
2019-03-24T17:58:35.771Z,11.20
2019-03-24T18:01:04.886Z,13.40
2019-03-24T18:03:33.832Z,11.50
2019-03-24T18:06:02.777Z,13.60
2019-03-24T18:08:31.739Z,13.80
2019-03-24T18:11:00.718Z,13.90
2019-03-24T18:13:29.612Z,12.20
2019-03-24T18:15:58.546Z,14.30
2019-03-24T18:18:27.441Z,14.50
2019-03-24T18:20:56.374Z,14.50
2019-03-24T18:23:25.289Z,12.80
2019-03-24T18:25:54.226Z,14.80
2019-03-24T18:28:23.228Z,14.70
2019-03-24T18:30:52.134Z,14.80
2019-03-24T18:33:21.470Z,13.40
2019-03-24T18:35:50.330Z,15.20
2019-03-24T18:38:19.113Z,15.40
2019-03-24T18:40:48.070Z,15.30
2019-03-24T18:43:16.936Z,13.90
2019-03-24T18:45:46.866Z,15.50
2019-03-24T18:48:15.692Z,14.90
2019-03-24T18:50:44.590Z,14.30
2019-03-24T18:53:13.518Z,14.50
2019-03-24T18:55:42.478Z,15.20
2019-03-24T18:58:11.353Z,14.80
2019-03-24T19:00:40.268Z,15.00
2019-03-24T19:03:09.176Z,15.00
2019-03-24T19:05:38.083Z,15.00
2019-03-24T19:08:06.997Z,15.60
2019-03-24T19:10:36.244Z,15.30
2019-03-24T19:13:05.334Z,15.80
2019-03-24T19:15:34.226Z,14.70
2019-03-24T19:18:03.250Z,15.50
2019-03-24T19:20:32.107Z,15.50
2019-03-24T19:23:01.051Z,16.20
2019-03-24T19:25:30.026Z,16.20
2019-03-24T19:27:59.037Z,15.90
2019-03-24T19:33:03.712Z,17.50
2019-03-24T19:35:32.618Z,18.00
2019-03-24T19:38:01.821Z,18.00
2019-03-24T19:40:32.382Z,18.10
2019-03-24T19:43:01.244Z,17.70
2019-03-24T19:45:30.266Z,18.30
2019-03-24T19:47:59.255Z,18.50
2019-03-24T19:50:28.127Z,18.50
2019-03-24T19:52:56.994Z,17.80
2019-03-24T19:55:26.410Z,17.30
2019-03-24T19:57:55.333Z,17.80
2019-03-24T20:00:25.360Z,17.80
2019-03-24T20:02:54.311Z,17.80
2019-03-24T20:05:23.302Z,17.60
2019-03-24T20:07:52.223Z,17.90
2019-03-24T20:10:21.185Z,18.10
2019-03-24T20:12:50.204Z,16.80
2019-03-24T20:15:19.133Z,17.40
2019-03-24T20:17:48.012Z,17.70
2019-03-24T20:20:17.005Z,17.50
2019-03-24T20:22:55.890Z,17.60
2019-03-24T20:25:16.485Z,17.70
2019-03-24T20:27:45.378Z,17.50
2019-03-24T20:30:14.690Z,17.80
2019-03-24T20:32:43.664Z,18.10
2019-03-24T20:35:14.143Z,17.80
2019-03-24T20:37:43.030Z,18.60
2019-03-24T20:40:13.215Z,18.90
2019-03-24T20:42:42.149Z,18.50
2019-03-24T20:45:11.555Z,18.00
2019-03-24T20:47:40.460Z,18.50
2019-03-24T20:50:09.952Z,18.30
2019-03-24T20:52:40.022Z,18.30
2019-03-24T20:55:09.006Z,18.20
2019-03-24T20:57:37.886Z,18.20
2019-03-24T21:00:08.103Z,19.50
2019-03-24T21:02:37.542Z,19.50
2019-03-24T21:05:07.639Z,19.80
2019-03-24T21:07:36.508Z,20.50
2019-03-24T21:10:07.375Z,21.40
2019-03-24T21:12:36.533Z,20.50
2019-03-24T21:15:07.624Z,21.10
2019-03-24T21:17:36.576Z,21.70
2019-03-24T21:20:07.498Z,21.80
2019-03-24T21:22:36.457Z,22.50
2019-03-24T21:25:06.368Z,22.70
2019-03-24T21:27:35.256Z,22.40
2019-03-24T21:30:06.125Z,22.00
2019-03-24T21:32:35.000Z,22.00
2019-03-24T21:35:04.847Z,22.80
2019-03-24T21:37:33.724Z,23.00
2019-03-24T21:40:03.000Z,22.30
2019-03-24T21:42:31.896Z,22.90
2019-03-24T21:45:00.716Z,23.40
2019-03-24T21:47:29.723Z,23.10
2019-03-24T21:49:58.600Z,23.70
2019-03-24T21:52:27.530Z,23.00
2019-03-24T21:54:56.371Z,24.00
2019-03-24T21:57:25.573Z,23.70
2019-03-24T22:02:23.353Z,24.50
2019-03-24T22:04:52.215Z,24.30
2019-03-24T22:09:49.692Z,24.00
2019-03-24T22:12:18.569Z,24.00
2019-03-24T22:22:13.030Z,24.00
2019-03-24T22:29:38.931Z,23.80
2019-03-24T22:34:36.462Z,23.90
2019-03-24T22:39:35.669Z,23.80
2019-03-24T22:42:04.701Z,23.90
2019-03-24T22:44:33.555Z,24.10
2019-03-24T22:49:30.949Z,24.00
2019-03-24T22:56:58.810Z,23.70
2019-03-24T23:01:56.246Z,24.20
2019-03-24T23:04:25.379Z,23.90
2019-03-24T23:06:54.289Z,23.90
2019-03-24T23:09:23.215Z,23.90
2019-03-24T23:16:49.200Z,23.70
2019-03-24T23:19:18.170Z,23.50
2019-03-24T23:21:47.014Z,23.20
2019-03-24T23:26:45.684Z,23.10
2019-03-24T23:29:14.558Z,23.00
2019-03-24T23:31:43.388Z,22.70
2019-03-24T23:34:12.194Z,22.50
2019-03-24T23:36:41.044Z,22.40
2019-03-24T23:39:10.042Z,22.90
2019-03-24T23:41:38.965Z,22.40
2019-03-24T23:46:36.532Z,22.40
2019-03-24T23:49:05.508Z,22.50
2019-03-24T23:51:34.324Z,22.50
2019-03-24T23:54:03.244Z,22.40
2019-03-24T23:56:32.126Z,22.60
